createdAt,value
2023-02-07T00:00:23.413Z,-3.07
2023-02-07T00:01:23.940Z,-3.07
2023-02-07T00:02:28.127Z,-3.06
2023-02-07T00:03:29.534Z,-2.99
2023-02-07T00:04:30.947Z,-3.02
2023-02-07T00:05:32.342Z,-3
2023-02-07T00:06:35.251Z,-3.03
2023-02-07T00:07:36.985Z,-3.02
2023-02-07T00:08:38.924Z,-3.04
2023-02-07T00:09:40.288Z,-3.01
2023-02-07T00:10:41.684Z,-3.04
2023-02-07T00:11:43.069Z,-3
2023-02-07T00:12:44.423Z,-2.98
2023-02-07T00:13:46.944Z,-2.97
2023-02-07T00:14:48.329Z,-2.98
2023-02-07T00:15:50.712Z,-2.96
2023-02-07T00:16:52.078Z,-2.94
2023-02-07T00:17:53.553Z,-2.98
2023-02-07T00:18:54.989Z,-2.99
2023-02-07T00:19:56.375Z,-3
2023-02-07T00:21:01.525Z,-2.95
2023-02-07T00:21:58.025Z,-2.99
2023-02-07T00:22:59.364Z,-2.92
2023-02-07T00:24:00.722Z,-2.96
2023-02-07T00:25:02.121Z,-3
2023-02-07T00:26:04.127Z,-2.97
2023-02-07T00:27:05.597Z,-2.97
2023-02-07T00:28:07.071Z,-2.96
2023-02-07T00:29:08.610Z,-2.98
2023-02-07T00:30:10.426Z,-2.96
2023-02-07T00:31:15.276Z,-2.96
2023-02-07T00:32:11.957Z,-2.96
2023-02-07T00:33:12.052Z,-2.97
2023-02-07T00:34:12.116Z,-2.97
2023-02-07T00:35:12.055Z,-3.01
2023-02-07T00:36:16.558Z,-2.97
2023-02-07T00:37:13.406Z,-3.04
2023-02-07T00:38:13.230Z,-3.03
2023-02-07T00:39:14.878Z,-3
2023-02-07T00:40:13.318Z,-2.96
2023-02-07T00:41:13.365Z,-3.02
2023-02-07T00:42:13.324Z,-3
2023-02-07T00:43:21.453Z,-3.06
2023-02-07T00:44:14.762Z,-2.96
2023-02-07T00:45:15.137Z,-3.03
2023-02-07T00:46:15.368Z,-3.07
2023-02-07T00:47:14.846Z,-3.05
2023-02-07T00:48:14.934Z,-2.99
2023-02-07T00:49:14.840Z,-2.98
2023-02-07T00:50:14.844Z,-3.01
2023-02-07T00:51:14.893Z,-3
2023-02-07T00:52:14.860Z,-3.02
2023-02-07T00:53:14.903Z,-3.02
2023-02-07T00:54:14.930Z,-3.03
2023-02-07T00:55:15.036Z,-3.04
2023-02-07T00:56:15.010Z,-3.03
2023-02-07T00:57:14.953Z,-3.02
2023-02-07T00:58:15.013Z,-3.03
2023-02-07T00:59:15.125Z,-2.99
2023-02-07T01:00:15.126Z,-3
2023-02-07T01:01:15.135Z,-2.98
2023-02-07T01:02:15.030Z,-3
2023-02-07T01:03:15.243Z,-2.96
2023-02-07T01:04:15.079Z,-3
2023-02-07T01:05:15.113Z,-3.04
2023-02-07T01:06:15.140Z,-3.04
2023-02-07T01:07:15.285Z,-3.03
2023-02-07T01:08:15.297Z,-3.06
2023-02-07T01:09:15.184Z,-3.08
2023-02-07T01:10:15.397Z,-3.12
2023-02-07T01:11:16.593Z,-3.08
2023-02-07T01:12:15.233Z,-3.06
2023-02-07T01:13:16.151Z,-3.06
2023-02-07T01:14:15.220Z,-3.08
2023-02-07T01:15:15.287Z,-3.04
2023-02-07T01:16:19.458Z,-3.05
2023-02-07T01:17:16.135Z,-3.03
2023-02-07T01:18:16.258Z,-3.03
2023-02-07T01:19:17.613Z,-3.03
2023-02-07T01:20:16.496Z,-3.06
2023-02-07T01:21:17.402Z,-3.03
2023-02-07T01:22:16.343Z,-3.02
2023-02-07T01:23:16.284Z,-3.06
2023-02-07T01:24:16.496Z,-2.99
2023-02-07T01:25:16.286Z,-2.99
2023-02-07T01:26:16.532Z,-3.08
2023-02-07T01:27:16.314Z,-3
2023-02-07T01:28:16.354Z,-3.03
2023-02-07T01:29:16.299Z,-3.08
2023-02-07T01:30:16.529Z,-3.07
2023-02-07T01:31:16.504Z,-3.09
2023-02-07T01:32:16.696Z,-3.04
2023-02-07T01:33:16.368Z,-3.07
2023-02-07T01:34:16.401Z,-3.04
2023-02-07T01:35:16.424Z,-3.09
2023-02-07T01:36:16.465Z,-3.08
2023-02-07T01:37:16.479Z,-3.08
2023-02-07T01:38:16.434Z,-3.03
2023-02-07T01:39:16.499Z,-3.06
2023-02-07T01:40:16.537Z,-3.1
2023-02-07T01:41:16.509Z,-3.07
2023-02-07T01:42:17.852Z,-3.08
2023-02-07T01:43:18.748Z,-3.11
2023-02-07T01:46:20.684Z,-3.11
2023-02-07T01:47:23.330Z,-3.12
2023-02-07T01:48:22.536Z,-3.1
2023-02-07T01:49:22.414Z,-3.08
2023-02-07T01:50:21.285Z,-3.13
2023-02-07T01:51:21.200Z,-3.13
2023-02-07T01:52:23.553Z,-3.06
2023-02-07T01:53:22.173Z,-3.13
2023-02-07T01:54:21.726Z,-3.13
2023-02-07T01:55:25.713Z,-3.17
2023-02-07T01:56:31.214Z,-3.22
2023-02-07T01:57:23.364Z,-3.21
2023-02-07T01:58:23.580Z,-3.23
2023-02-07T01:59:24.991Z,-3.26
2023-02-07T02:00:23.381Z,-3.23
2023-02-07T02:01:25.030Z,-3.24
2023-02-07T02:02:24.858Z,-3.25
2023-02-07T02:03:23.471Z,-3.24
2023-02-07T02:04:23.639Z,-3.22
2023-02-07T02:05:23.805Z,-3.23
2023-02-07T02:06:25.290Z,-3.25
2023-02-07T02:07:24.045Z,-3.24
2023-02-07T02:08:24.180Z,-3.23
2023-02-07T02:09:23.889Z,-3.27
2023-02-07T02:10:26.401Z,-3.26
2023-02-07T02:16:42.758Z,-3.16
2023-02-07T02:25:11.178Z,-3.28
2023-02-07T02:34:28.853Z,-3.23
2023-02-07T02:35:31.805Z,-3.22
2023-02-07T02:36:40.696Z,-3.22
2023-02-07T02:38:36.073Z,-3.23
2023-02-07T02:42:43.956Z,-3.24
2023-02-07T02:45:46.412Z,-3.22
2023-02-07T02:46:45.167Z,-3.24
2023-02-07T02:47:46.390Z,-3.25
2023-02-07T02:48:44.615Z,-3.25
2023-02-07T02:49:44.962Z,-3.25
2023-02-07T02:50:47.845Z,-3.2
2023-02-07T02:51:44.577Z,-3.26
2023-02-07T02:52:50.541Z,-3.23
2023-02-07T02:53:51.540Z,-3.21
2023-02-07T02:54:48.299Z,-3.28
2023-02-07T03:11:25.945Z,-3.3
2023-02-07T03:13:33.625Z,-3.22
2023-02-07T03:16:43.130Z,-3.26
2023-02-07T03:17:42.811Z,-3.23
2023-02-07T03:20:53.891Z,-3.31
2023-02-07T03:21:47.055Z,-3.32
2023-02-07T03:22:46.490Z,-3.29
2023-02-07T03:23:47.010Z,-3.31
2023-02-07T03:24:46.509Z,-3.29
2023-02-07T03:25:46.116Z,-3.3
2023-02-07T03:26:46.947Z,-3.31
2023-02-07T03:27:46.760Z,-3.28
2023-02-07T03:28:46.454Z,-3.28
2023-02-07T03:29:46.790Z,-3.23
2023-02-07T03:30:46.986Z,-3.22
2023-02-07T03:31:48.476Z,-3.3
2023-02-07T03:32:49.039Z,-3.33
2023-02-07T03:33:48.725Z,-3.31
2023-02-07T03:34:50.878Z,-3.29
2023-02-07T03:37:57.110Z,-3.27
2023-02-07T03:38:53.361Z,-3.26
2023-02-07T03:39:53.361Z,-3.24
2023-02-07T03:40:56.300Z,-3.24
2023-02-07T03:41:55.455Z,-3.23
2023-02-07T03:43:59.177Z,-3.26
2023-02-07T03:44:58.861Z,-3.24
2023-02-07T03:45:58.508Z,-3.21
2023-02-07T03:46:57.828Z,-3.23
2023-02-07T03:47:57.744Z,-3.19
2023-02-07T03:48:57.840Z,-3.23
2023-02-07T03:49:57.937Z,-3.27
2023-02-07T03:50:57.843Z,-3.27
2023-02-07T03:51:57.860Z,-3.24
2023-02-07T03:52:57.819Z,-3.27
2023-02-07T03:53:57.907Z,-3.3
2023-02-07T03:54:57.891Z,-3.26
2023-02-07T03:55:57.898Z,-3.25
2023-02-07T03:56:57.959Z,-3.27
2023-02-07T03:57:58.106Z,-3.28
2023-02-07T03:58:58.171Z,-3.26
2023-02-07T03:59:57.991Z,-3.27
2023-02-07T04:00:58.013Z,-3.3
2023-02-07T04:01:58.059Z,-3.34
2023-02-07T04:02:57.987Z,-3.32
2023-02-07T04:03:58.056Z,-3.35
2023-02-07T04:04:58.099Z,-3.4
2023-02-07T04:05:58.059Z,-3.37
2023-02-07T04:06:58.061Z,-3.37
2023-02-07T04:07:58.074Z,-3.37
2023-02-07T04:08:58.144Z,-3.36
2023-02-07T04:09:58.110Z,-3.31
2023-02-07T04:10:58.881Z,-3.34
2023-02-07T04:11:58.203Z,-3.34
2023-02-07T04:12:58.202Z,-3.31
2023-02-07T04:13:58.341Z,-3.27
2023-02-07T04:14:58.810Z,-3.32
2023-02-07T04:15:58.212Z,-3.3
2023-02-07T04:16:58.251Z,-3.32
2023-02-07T04:17:58.235Z,-3.35
2023-02-07T04:18:58.264Z,-3.37
2023-02-07T04:19:58.943Z,-3.37
2023-02-07T04:21:05.067Z,-3.39
2023-02-07T04:22:01.764Z,-3.36
2023-02-07T04:23:01.769Z,-3.32
2023-02-07T04:24:01.841Z,-3.37
2023-02-07T04:25:01.907Z,-3.35
2023-02-07T04:26:02.108Z,-3.33
2023-02-07T04:27:01.839Z,-3.35
2023-02-07T04:28:01.966Z,-3.4
2023-02-07T04:29:01.984Z,-3.39
2023-02-07T04:30:01.939Z,-3.43
2023-02-07T04:31:02.093Z,-3.42
2023-02-07T04:32:02.028Z,-3.41
2023-02-07T04:33:01.930Z,-3.38
2023-02-07T04:34:01.922Z,-3.4
2023-02-07T04:35:02.058Z,-3.37
2023-02-07T04:36:03.082Z,-3.42
2023-02-07T04:37:02.036Z,-3.35
2023-02-07T04:38:02.022Z,-3.43
2023-02-07T04:39:02.175Z,-3.4
2023-02-07T04:40:02.080Z,-3.44
2023-02-07T04:41:03.812Z,-3.47
2023-02-07T04:42:02.086Z,-3.46
2023-02-07T04:43:02.084Z,-3.43
2023-02-07T04:44:02.125Z,-3.43
2023-02-07T04:45:02.167Z,-3.41
2023-02-07T04:46:03.529Z,-3.41
2023-02-07T04:47:02.153Z,-3.43
2023-02-07T04:48:02.186Z,-3.44
2023-02-07T04:49:02.179Z,-3.42
2023-02-07T04:50:02.213Z,-3.39
2023-02-07T04:51:02.230Z,-3.44
2023-02-07T04:52:02.294Z,-3.44
2023-02-07T04:53:02.204Z,-3.42
2023-02-07T04:54:02.440Z,-3.46
2023-02-07T04:55:02.323Z,-3.43
2023-02-07T04:56:02.297Z,-3.38
2023-02-07T04:57:02.279Z,-3.43
2023-02-07T04:58:02.819Z,-3.39
2023-02-07T04:59:02.286Z,-3.44
2023-02-07T05:00:02.591Z,-3.44
2023-02-07T05:01:02.385Z,-3.48
2023-02-07T05:02:02.376Z,-3.45
2023-02-07T05:03:02.378Z,-3.43
2023-02-07T05:04:02.467Z,-3.46
2023-02-07T05:05:02.458Z,-3.46
2023-02-07T05:06:02.510Z,-3.46
2023-02-07T05:07:02.498Z,-3.45
2023-02-07T05:08:02.505Z,-3.47
2023-02-07T05:09:02.504Z,-3.46
2023-02-07T05:10:02.512Z,-3.47
2023-02-07T05:11:03.076Z,-3.46
2023-02-07T05:12:02.530Z,-3.44
2023-02-07T05:13:02.612Z,-3.48
2023-02-07T05:14:02.750Z,-3.46
2023-02-07T05:15:02.730Z,-3.44
2023-02-07T05:16:03.357Z,-3.45
2023-02-07T05:17:02.649Z,-3.44
2023-02-07T05:18:02.978Z,-3.47
2023-02-07T05:19:02.680Z,-3.47
2023-02-07T05:20:02.731Z,-3.46
2023-02-07T05:21:02.776Z,-3.48
2023-02-07T05:22:02.897Z,-3.5
2023-02-07T05:23:02.777Z,-3.51
2023-02-07T05:24:02.778Z,-3.46
2023-02-07T05:25:02.836Z,-3.45
2023-02-07T05:26:02.844Z,-3.42
2023-02-07T05:27:02.802Z,-3.48
2023-02-07T05:28:02.866Z,-3.54
2023-02-07T05:29:02.910Z,-3.54
2023-02-07T05:30:03.266Z,-3.48
2023-02-07T05:31:03.059Z,-3.48
2023-02-07T05:32:03.776Z,-3.49
2023-02-07T05:33:02.928Z,-3.48
2023-02-07T05:34:02.881Z,-3.49
2023-02-07T05:35:02.945Z,-3.49
2023-02-07T05:36:03.054Z,-3.47
2023-02-07T05:37:02.972Z,-3.46
2023-02-07T05:38:03.863Z,-3.48
2023-02-07T05:39:04.451Z,-3.63
2023-02-07T05:40:03.271Z,-3.64
2023-02-07T05:41:03.098Z,-3.6
2023-02-07T05:42:03.105Z,-3.59
2023-02-07T05:43:03.473Z,-3.61
2023-02-07T05:44:03.180Z,-3.62
2023-02-07T05:45:03.344Z,-3.6
2023-02-07T05:46:03.320Z,-3.61
2023-02-07T05:47:03.105Z,-3.63
2023-02-07T05:48:03.547Z,-3.57
2023-02-07T05:49:03.292Z,-3.62
2023-02-07T05:50:03.326Z,-3.63
2023-02-07T05:51:03.262Z,-3.59
2023-02-07T05:52:03.224Z,-3.58
2023-02-07T05:53:03.600Z,-3.6
2023-02-07T05:54:03.405Z,-3.6
2023-02-07T05:55:03.837Z,-3.71
2023-02-07T05:56:03.388Z,-3.73
2023-02-07T05:57:03.522Z,-3.75
2023-02-07T05:58:03.448Z,-3.62
2023-02-07T05:59:03.376Z,-3.5
2023-02-07T06:00:03.730Z,-3.48
2023-02-07T06:01:03.303Z,-3.46
2023-02-07T06:02:03.281Z,-3.5
2023-02-07T06:03:03.387Z,-3.48
2023-02-07T06:04:03.409Z,-3.45
2023-02-07T06:05:03.414Z,-3.58
2023-02-07T06:06:03.555Z,-3.63
2023-02-07T06:07:03.383Z,-3.64
2023-02-07T06:08:03.573Z,-3.57
2023-02-07T06:09:03.600Z,-3.55
2023-02-07T06:10:04.551Z,-3.56
2023-02-07T06:11:03.458Z,-3.67
2023-02-07T06:12:06.598Z,-3.64
2023-02-07T06:13:03.539Z,-3.66
2023-02-07T06:14:03.494Z,-3.65
2023-02-07T06:15:03.660Z,-3.68
2023-02-07T06:16:03.571Z,-3.65
2023-02-07T06:17:03.518Z,-3.58
2023-02-07T06:18:03.591Z,-3.61
2023-02-07T06:19:03.515Z,-3.6
2023-02-07T06:20:04.184Z,-3.56
2023-02-07T06:21:03.769Z,-3.56
2023-02-07T06:22:03.670Z,-3.55
2023-02-07T06:23:04.297Z,-3.61
2023-02-07T06:24:03.797Z,-3.57
2023-02-07T06:25:04.432Z,-3.59
2023-02-07T06:26:04.321Z,-3.51
2023-02-07T06:27:04.442Z,-3.52
2023-02-07T06:28:04.370Z,-3.57
2023-02-07T06:29:04.242Z,-3.6
2023-02-07T06:30:04.471Z,-3.64
2023-02-07T06:31:04.510Z,-3.67
2023-02-07T06:32:04.582Z,-3.7
2023-02-07T06:33:04.206Z,-3.67
2023-02-07T06:34:04.185Z,-3.65
2023-02-07T06:35:05.410Z,-3.67
2023-02-07T06:36:04.673Z,-3.72
2023-02-07T06:37:04.491Z,-3.73
2023-02-07T06:38:04.262Z,-3.68
2023-02-07T06:39:04.398Z,-3.62
2023-02-07T06:40:04.606Z,-3.63
2023-02-07T06:41:04.531Z,-3.5
2023-02-07T06:42:04.279Z,-3.48
2023-02-07T06:43:04.252Z,-3.47
2023-02-07T06:44:04.741Z,-3.47
2023-02-07T06:45:04.629Z,-3.41
2023-02-07T06:46:04.799Z,-3.33
2023-02-07T06:47:04.351Z,-3.35
2023-02-07T06:48:04.463Z,-3.37
2023-02-07T06:49:04.377Z,-3.37
2023-02-07T06:50:04.592Z,-3.31
2023-02-07T06:51:04.663Z,-3.34
2023-02-07T06:52:04.927Z,-3.28
2023-02-07T06:53:04.794Z,-3.36
2023-02-07T06:54:04.484Z,-3.37
2023-02-07T06:55:04.621Z,-3.39
2023-02-07T06:56:04.889Z,-3.48
2023-02-07T06:57:04.518Z,-3.47
2023-02-07T06:58:05.413Z,-3.43
2023-02-07T06:59:04.505Z,-3.35
2023-02-07T07:00:05.206Z,-3.21
2023-02-07T07:01:04.777Z,-3.24
2023-02-07T07:02:04.599Z,-3.29
2023-02-07T07:03:04.978Z,-3.32
2023-02-07T07:04:04.678Z,-3.33
2023-02-07T07:05:04.698Z,-3.39
2023-02-07T07:06:05.003Z,-3.45
2023-02-07T07:07:04.588Z,-3.46
2023-02-07T07:08:04.575Z,-3.4
2023-02-07T07:09:05.106Z,-3.38
2023-02-07T07:10:05.036Z,-3.29
2023-02-07T07:11:04.824Z,-3.24
2023-02-07T07:12:05.123Z,-3.38
2023-02-07T07:13:04.679Z,-3.43
2023-02-07T07:14:04.703Z,-3.35
2023-02-07T07:15:05.076Z,-3.31
2023-02-07T07:16:05.138Z,-3.29
2023-02-07T07:17:04.749Z,-3.27
2023-02-07T07:18:04.817Z,-3.28
2023-02-07T07:19:04.754Z,-3.28
2023-02-07T07:20:05.165Z,-3.21
2023-02-07T07:21:05.207Z,-3.18
2023-02-07T07:22:04.792Z,-3.19
2023-02-07T07:23:04.914Z,-3.26
2023-02-07T07:24:05.364Z,-3.33
2023-02-07T07:25:05.183Z,-3.34
2023-02-07T07:26:05.371Z,-3.33
2023-02-07T07:27:04.958Z,-3.35
2023-02-07T07:28:04.974Z,-3.33
2023-02-07T07:29:05.012Z,-3.26
2023-02-07T07:30:05.295Z,-3.37
2023-02-07T07:31:06.486Z,-3.37
2023-02-07T07:32:05.269Z,-3.3
2023-02-07T07:33:05.002Z,-3.41
2023-02-07T07:34:05.177Z,-3.39
2023-02-07T07:35:05.617Z,-3.26
2023-02-07T07:36:05.394Z,-3.32
2023-02-07T07:37:07.244Z,-3.21
2023-02-07T07:38:05.122Z,-3.23
2023-02-07T07:39:05.271Z,-3.33
2023-02-07T07:40:05.672Z,-3.44
2023-02-07T07:41:05.084Z,-3.33
2023-02-07T07:42:05.125Z,-3.23
2023-02-07T07:43:05.391Z,-3.24
2023-02-07T07:44:05.250Z,-3.13
2023-02-07T07:45:05.463Z,-3.05
2023-02-07T07:46:05.438Z,-3.26
2023-02-07T07:47:05.199Z,-3.3
2023-02-07T07:48:05.451Z,-3.28
2023-02-07T07:49:05.220Z,-3.16
2023-02-07T07:50:05.701Z,-3.14
2023-02-07T07:51:05.516Z,-3.12
2023-02-07T07:52:05.418Z,-3.02
2023-02-07T07:53:05.240Z,-2.96
2023-02-07T07:54:05.708Z,-2.94
2023-02-07T07:55:05.737Z,-2.89
2023-02-07T07:56:05.573Z,-2.88
2023-02-07T07:57:05.243Z,-3.17
2023-02-07T07:58:05.284Z,-3.2
2023-02-07T07:59:05.924Z,-3.03
2023-02-07T08:00:05.767Z,-2.89
2023-02-07T08:01:05.842Z,-3.03
2023-02-07T08:02:05.669Z,-2.88
2023-02-07T08:03:05.665Z,-3
2023-02-07T08:04:05.867Z,-3.03
2023-02-07T08:05:05.944Z,-2.8
2023-02-07T08:06:06.138Z,-3.11
2023-02-07T08:07:05.782Z,-3.1
2023-02-07T08:08:06.157Z,-3.22
2023-02-07T08:09:05.917Z,-3.01
2023-02-07T08:10:05.947Z,-2.94
2023-02-07T08:11:07.028Z,-3
2023-02-07T08:12:05.968Z,-3.08
2023-02-07T08:13:06.185Z,-3.3
2023-02-07T08:14:05.801Z,-3.25
2023-02-07T08:15:06.285Z,-3.07
2023-02-07T08:16:07.113Z,-2.9
2023-02-07T08:17:05.836Z,-2.93
2023-02-07T08:18:06.109Z,-2.89
2023-02-07T08:19:05.856Z,-2.83
2023-02-07T08:20:06.302Z,-2.82
2023-02-07T08:21:06.030Z,-2.95
2023-02-07T08:22:05.916Z,-2.8
2023-02-07T08:23:05.893Z,-2.88
2023-02-07T08:24:06.131Z,-2.94
2023-02-07T08:25:06.653Z,-2.78
2023-02-07T08:26:05.941Z,-3.07
2023-02-07T08:27:05.951Z,-3.01
2023-02-07T08:28:06.037Z,-3.02
2023-02-07T08:29:06.175Z,-3.06
2023-02-07T08:30:07.349Z,-3.07
2023-02-07T08:31:06.071Z,-2.88
2023-02-07T08:32:06.221Z,-2.83
2023-02-07T08:33:05.989Z,-2.86
2023-02-07T08:34:06.046Z,-2.75
2023-02-07T08:35:06.542Z,-2.77
2023-02-07T08:36:06.320Z,-2.82
2023-02-07T08:37:07.262Z,-2.91
2023-02-07T08:38:06.072Z,-2.87
2023-02-07T08:39:06.765Z,-2.69
2023-02-07T08:40:06.892Z,-2.87
2023-02-07T08:41:06.179Z,-2.93
2023-02-07T08:42:06.203Z,-2.81
2023-02-07T08:43:06.188Z,-2.66
2023-02-07T08:44:06.372Z,-2.69
2023-02-07T08:45:06.747Z,-2.58
2023-02-07T08:46:06.507Z,-2.74
2023-02-07T08:47:07.258Z,-2.88
2023-02-07T08:48:06.232Z,-2.78
2023-02-07T08:49:06.311Z,-2.64
2023-02-07T08:50:06.699Z,-2.54
2023-02-07T08:51:06.855Z,-2.64
2023-02-07T08:52:07.891Z,-2.79
2023-02-07T08:53:07.572Z,-2.78
2023-02-07T08:54:07.560Z,-2.87
2023-02-07T08:55:08.214Z,-2.8
2023-02-07T08:56:07.562Z,-2.69
2023-02-07T08:57:07.498Z,-2.68
2023-02-07T08:58:07.969Z,-2.81
2023-02-07T08:59:07.699Z,-2.94
2023-02-07T09:00:08.329Z,-2.87
2023-02-07T09:01:08.077Z,-2.96
2023-02-07T09:02:07.853Z,-2.89
2023-02-07T09:03:07.630Z,-2.79
2023-02-07T09:04:07.649Z,-2.68
2023-02-07T09:05:08.017Z,-2.82
2023-02-07T09:06:07.865Z,-2.86
2023-02-07T09:07:07.978Z,-2.79
2023-02-07T09:08:07.916Z,-2.7
2023-02-07T09:09:07.924Z,-2.56
2023-02-07T09:10:09.248Z,-2.48
2023-02-07T09:11:09.347Z,-2.58
2023-02-07T09:12:08.112Z,-2.8
2023-02-07T09:13:07.850Z,-2.71
2023-02-07T09:14:07.844Z,-2.52
2023-02-07T09:15:08.492Z,-2.53
2023-02-07T09:16:07.913Z,-2.59
2023-02-07T09:17:08.230Z,-2.74
2023-02-07T09:18:07.862Z,-2.69
2023-02-07T09:19:08.147Z,-2.61
2023-02-07T09:20:08.332Z,-2.78
2023-02-07T09:21:08.176Z,-2.8
2023-02-07T09:22:07.937Z,-2.66
2023-02-07T09:23:07.930Z,-2.62
2023-02-07T09:24:07.899Z,-2.63
2023-02-07T09:25:07.927Z,-2.61
2023-02-07T09:26:08.575Z,-2.54
2023-02-07T09:27:07.967Z,-2.54
2023-02-07T09:28:08.010Z,-2.51
2023-02-07T09:29:08.353Z,-2.46
2023-02-07T09:30:08.557Z,-2.55
2023-02-07T09:31:09.004Z,-2.65
2023-02-07T09:32:08.046Z,-2.74
2023-02-07T09:33:08.976Z,-2.77
2023-02-07T09:34:08.150Z,-2.64
2023-02-07T09:35:08.389Z,-2.67
2023-02-07T09:36:19.213Z,-2.6
2023-02-07T09:37:11.064Z,-2.62
2023-02-07T09:38:15.176Z,-2.72
2023-02-07T09:39:11.879Z,-2.67
2023-02-07T09:40:15.987Z,-2.42
2023-02-07T09:41:20.095Z,-2.31
2023-02-07T09:46:32.971Z,-2.33
2023-02-07T09:47:31.328Z,-2.34
2023-02-07T09:50:38.974Z,-2.39
2023-02-07T09:51:36.235Z,-2.29
2023-02-07T09:52:45.030Z,-2.29
2023-02-07T09:54:41.515Z,-2.25
2023-02-07T09:56:42.378Z,-2.44
2023-02-07T09:57:45.790Z,-2.46
2023-02-07T09:58:45.287Z,-2.31
2023-02-07T10:00:50.293Z,-2.48
2023-02-07T10:01:50.890Z,-2.54
2023-02-07T10:04:54.375Z,-2.35
2023-02-07T10:06:12.750Z,-2.43
2023-02-07T10:06:55.357Z,-2.23
2023-02-07T10:07:53.903Z,-2.21
2023-02-07T10:08:55.802Z,-2.34
2023-02-07T10:09:53.940Z,-2.16
2023-02-07T10:17:31.176Z,-2.12
2023-02-07T10:21:29.968Z,-2.25
2023-02-07T10:26:37.517Z,-2.14
2023-02-07T10:31:50.682Z,-2.16
2023-02-07T10:32:47.763Z,-2.1
2023-02-07T10:33:49.836Z,-2.11
2023-02-07T10:34:47.541Z,-2.1
2023-02-07T10:35:48.219Z,-2.24
2023-02-07T10:36:49.022Z,-2.06
2023-02-07T10:37:49.207Z,-2.14
2023-02-07T10:39:08.497Z,-2.4
2023-02-07T10:40:56.106Z,-1.99
2023-02-07T10:41:52.772Z,-1.91
2023-02-07T10:43:03.773Z,-1.94
2023-02-07T10:43:55.724Z,-2.1
2023-02-07T10:44:55.737Z,-2.14
2023-02-07T10:46:04.528Z,-2.12
2023-02-07T10:46:59.715Z,-2.06
2023-02-07T10:47:57.739Z,-2.01
2023-02-07T10:48:57.692Z,-2.03
2023-02-07T10:49:59.170Z,-2.04
2023-02-07T10:51:00.164Z,-2.08
2023-02-07T10:52:59.102Z,-1.93
2023-02-07T10:55:02.488Z,-1.83
2023-02-07T10:56:00.696Z,-1.77
2023-02-07T10:57:02.613Z,-1.81
2023-02-07T10:58:08.554Z,-1.83
2023-02-07T10:59:01.334Z,-2.03
2023-02-07T11:01:16.760Z,-2.05
2023-02-07T11:03:14.275Z,-1.91
2023-02-07T11:07:20.737Z,-1.87
2023-02-07T11:08:22.285Z,-1.75
2023-02-07T11:09:22.861Z,-1.8
2023-02-07T11:10:23.018Z,-1.73
2023-02-07T11:12:23.057Z,-1.8
2023-02-07T11:13:23.391Z,-1.81
2023-02-07T11:14:23.020Z,-1.9
2023-02-07T11:15:23.896Z,-1.93
2023-02-07T11:16:23.187Z,-2
2023-02-07T11:17:22.132Z,-2.05
2023-02-07T11:19:26.804Z,-1.62
2023-02-07T11:20:30.973Z,-1.75
2023-02-07T11:21:34.467Z,-1.71
2023-02-07T11:22:31.454Z,-1.71
2023-02-07T11:23:31.310Z,-1.88
2023-02-07T11:24:34.512Z,-1.7
2023-02-07T11:25:40.659Z,-1.77
2023-02-07T11:26:34.404Z,-1.75
2023-02-07T11:27:37.519Z,-1.77
2023-02-07T11:28:34.335Z,-1.72
2023-02-07T11:29:37.249Z,-1.71
2023-02-07T11:30:36.017Z,-1.8
2023-02-07T11:31:35.948Z,-1.8
2023-02-07T11:32:34.436Z,-1.89
2023-02-07T11:33:35.721Z,-2.03
2023-02-07T11:34:44.002Z,-1.83
2023-02-07T11:35:36.610Z,-1.69
2023-02-07T11:36:36.464Z,-1.92
2023-02-07T11:37:38.507Z,-1.76
2023-02-07T11:38:38.014Z,-1.72
2023-02-07T11:39:36.570Z,-1.74
2023-02-07T11:41:40.564Z,-1.7
2023-02-07T11:42:40.929Z,-1.79
2023-02-07T11:43:51.140Z,-1.84
2023-02-07T11:44:43.897Z,-1.8
2023-02-07T11:45:47.866Z,-1.92
2023-02-07T11:46:47.054Z,-1.8
2023-02-07T11:47:46.423Z,-1.78
2023-02-07T11:48:47.395Z,-1.93
2023-02-07T11:49:52.586Z,-1.94
2023-02-07T11:50:52.831Z,-1.85
2023-02-07T11:51:51.067Z,-2.12
2023-02-07T11:52:51.067Z,-1.94
2023-02-07T11:53:52.535Z,-2.01
2023-02-07T11:54:58.593Z,-1.89
2023-02-07T11:55:52.994Z,-1.98
2023-02-07T11:56:51.724Z,-2.2
2023-02-07T11:57:50.314Z,-2.1
2023-02-07T11:58:51.388Z,-1.95
2023-02-07T12:00:55.215Z,-1.93
2023-02-07T12:01:56.463Z,-1.94
2023-02-07T12:04:08.742Z,-1.8
2023-02-07T12:06:04.513Z,-1.71
2023-02-07T12:07:08.988Z,-1.59
2023-02-07T12:08:14.106Z,-1.52
2023-02-07T12:09:12.258Z,-1.71
2023-02-07T12:10:15.118Z,-1.86
2023-02-07T12:11:14.934Z,-1.87
2023-02-07T12:12:18.988Z,-1.93
2023-02-07T12:13:21.729Z,-1.76
2023-02-07T12:15:22.090Z,-1.63
2023-02-07T12:16:24.160Z,-1.64
2023-02-07T12:17:23.796Z,-1.65
2023-02-07T12:21:33.450Z,-1.66
2023-02-07T12:22:32.717Z,-1.66
2023-02-07T12:25:40.784Z,-1.74
2023-02-07T12:26:44.818Z,-1.65
2023-02-07T12:27:39.623Z,-1.8
2023-02-07T12:28:39.643Z,-1.66
2023-02-07T12:30:43.769Z,-1.89
2023-02-07T12:36:00.920Z,-2.03
2023-02-07T12:41:16.703Z,-1.92
2023-02-07T12:42:21.003Z,-1.91
2023-02-07T12:44:26.157Z,-1.91
2023-02-07T13:01:16.068Z,-1.97
2023-02-07T13:02:14.794Z,-2.03
2023-02-07T13:04:22.056Z,-1.97
2023-02-07T13:18:52.079Z,-2.01
2023-02-07T13:19:52.842Z,-2.17
2023-02-07T13:21:56.084Z,-2.24
2023-02-07T13:23:56.506Z,-2.29
2023-02-07T13:24:52.962Z,-2.21
2023-02-07T13:25:55.486Z,-2.27
2023-02-07T13:27:55.813Z,-2.35
2023-02-07T13:28:59.080Z,-2.34
2023-02-07T13:29:56.069Z,-2.28
2023-02-07T13:30:55.693Z,-2.37
2023-02-07T13:31:58.511Z,-2.31
2023-02-07T13:32:58.081Z,-2.24
2023-02-07T13:33:55.634Z,-2.27
2023-02-07T13:34:58.709Z,-2.26
2023-02-07T13:35:58.410Z,-2.3
2023-02-07T13:36:57.238Z,-2.33
2023-02-07T13:39:07.805Z,-2.35
2023-02-07T13:43:18.831Z,-2.4
2023-02-07T13:47:31.715Z,-2.4
2023-02-07T13:48:34.800Z,-2.3
2023-02-07T13:52:37.545Z,-2.31
2023-02-07T13:55:38.516Z,-2.4
2023-02-07T13:56:36.908Z,-2.41
2023-02-07T13:57:40.683Z,-2.45
2023-02-07T13:59:38.791Z,-2.32
2023-02-07T14:02:45.868Z,-2.48
2023-02-07T14:03:47.454Z,-2.4
2023-02-07T14:05:45.609Z,-2.39
2023-02-07T14:07:55.763Z,-2.46
2023-02-07T14:09:49.060Z,-2.54
2023-02-07T14:10:57.874Z,-2.56
2023-02-07T14:12:51.818Z,-2.5
2023-02-07T14:15:02.654Z,-2.54
2023-02-07T14:16:01.940Z,-2.47
2023-02-07T14:17:00.319Z,-2.52
2023-02-07T14:18:02.919Z,-2.51
2023-02-07T14:18:59.176Z,-2.55
2023-02-07T14:20:00.107Z,-2.57
2023-02-07T14:21:03.022Z,-2.59
2023-02-07T14:23:14.627Z,-2.53
2023-02-07T14:25:21.580Z,-2.56
2023-02-07T14:27:32.106Z,-2.62
2023-02-07T14:28:20.444Z,-2.59
2023-02-07T14:30:27.152Z,-2.63
2023-02-07T14:31:24.156Z,-2.66
2023-02-07T14:35:32.294Z,-2.67
2023-02-07T14:36:30.781Z,-2.71
2023-02-07T14:38:39.704Z,-2.69
2023-02-07T14:39:35.989Z,-2.71
2023-02-07T14:41:38.305Z,-2.73
2023-02-07T14:42:38.294Z,-2.7
2023-02-07T14:43:50.588Z,-2.81
2023-02-07T14:44:39.530Z,-2.81
2023-02-07T14:46:41.734Z,-2.83
2023-02-07T14:47:39.483Z,-2.82
2023-02-07T14:49:47.778Z,-2.79
2023-02-07T14:51:52.387Z,-2.84
2023-02-07T14:52:48.705Z,-2.77
2023-02-07T14:54:54.816Z,-2.83
2023-02-07T14:55:54.571Z,-2.86
2023-02-07T14:58:03.895Z,-2.82
2023-02-07T14:58:56.756Z,-2.86
2023-02-07T15:00:57.757Z,-2.86
2023-02-07T15:01:56.425Z,-2.89
2023-02-07T15:02:57.437Z,-2.94
2023-02-07T15:06:02.041Z,-2.89
2023-02-07T15:07:01.429Z,-2.87
2023-02-07T15:09:05.830Z,-2.92
2023-02-07T15:11:13.548Z,-2.91
2023-02-07T15:12:25.758Z,-2.87
2023-02-07T15:13:24.659Z,-2.88
2023-02-07T15:14:21.417Z,-2.92
2023-02-07T15:15:19.586Z,-2.89
2023-02-07T15:16:27.699Z,-2.91
2023-02-07T15:17:20.309Z,-2.94
2023-02-07T15:18:20.612Z,-2.98
2023-02-07T15:19:22.594Z,-2.95
2023-02-07T15:20:22.265Z,-2.95
2023-02-07T15:21:23.244Z,-2.9
2023-02-07T15:22:26.130Z,-2.95
2023-02-07T15:23:24.043Z,-2.92
2023-02-07T15:25:23.746Z,-2.9
2023-02-07T15:26:23.544Z,-2.88
2023-02-07T15:27:25.376Z,-2.92
2023-02-07T15:28:28.114Z,-2.91
2023-02-07T15:29:26.597Z,-2.93
2023-02-07T15:30:24.970Z,-2.91
2023-02-07T15:31:25.079Z,-2.95
2023-02-07T15:32:33.778Z,-2.95
2023-02-07T15:33:26.318Z,-2.95
2023-02-07T15:34:27.178Z,-2.95
2023-02-07T15:35:27.723Z,-2.9
2023-02-07T15:36:30.287Z,-2.93
2023-02-07T15:37:29.021Z,-2.92
2023-02-07T15:38:27.698Z,-2.88
2023-02-07T15:39:28.743Z,-2.91
2023-02-07T15:40:27.231Z,-2.92
2023-02-07T15:41:27.638Z,-2.99
2023-02-07T15:42:27.052Z,-3
2023-02-07T15:43:33.341Z,-2.94
2023-02-07T15:44:31.051Z,-2.92
2023-02-07T15:45:31.036Z,-2.91
2023-02-07T15:47:34.311Z,-2.95
2023-02-07T15:48:33.493Z,-2.92
2023-02-07T15:50:37.936Z,-2.89
2023-02-07T15:51:39.137Z,-2.89
2023-02-07T15:53:39.985Z,-2.93
2023-02-07T15:54:40.358Z,-2.94
2023-02-07T15:56:45.409Z,-2.95
2023-02-07T15:57:43.212Z,-2.91
2023-02-07T15:58:42.806Z,-2.88
2023-02-07T15:59:43.046Z,-2.93
2023-02-07T16:00:42.923Z,-2.93
2023-02-07T16:01:43.088Z,-2.93
2023-02-07T16:02:44.000Z,-2.92
2023-02-07T16:03:44.417Z,-2.97
2023-02-07T16:04:44.495Z,-2.9
2023-02-07T16:05:42.892Z,-2.89
2023-02-07T16:07:45.832Z,-2.96
2023-02-07T16:08:45.693Z,-2.99
2023-02-07T16:09:46.776Z,-3
2023-02-07T16:10:45.644Z,-2.95
2023-02-07T16:11:45.749Z,-2.95
2023-02-07T16:12:46.502Z,-2.96
2023-02-07T16:13:46.931Z,-2.97
2023-02-07T16:14:45.785Z,-3